Time;durP1;ratioP1;P1;durP2;ratioP2;P2;SDS_P1;SDS_P2;PMS_P1;PMS_P2;Temp;Humidity;BMP_temperature;BMP_pressure;BME280_temperature;BME280_humidity;BME280_pressure;Samples;Min_cycle;Max_cycle;Signal;HPM_P1;HPM_P2
2023/09/27 00:00:32;;;;;;;12.77;4.05;;;;;;;20.23;60.51;100280.72;5065218;28;20051;-79
2023/09/27 00:03:01;;;;;;;11.30;3.70;;;;;;;20.18;60.65;100285.41;5070661;28;20377;-79
2023/09/27 00:05:26;;;;;;;8.27;3.50;;;;;;;20.12;60.72;100280.31;5070462;28;20035;-80
2023/09/27 00:07:52;;;;;;;9.30;3.83;;;;;;;20.08;60.39;100284.06;5064541;28;20020;-90
2023/09/27 00:10:17;;;;;;;9.97;3.80;;;;;;;20.07;60.35;100282.34;5091276;28;20179;-88
2023/09/27 00:12:43;;;;;;;10.27;3.00;;;;;;;20.06;60.33;100284.13;5078478;28;20028;-90
2023/09/27 00:15:11;;;;;;;12.98;3.42;;;;;;;20.04;60.23;100277.97;5071121;28;20021;-86
2023/09/27 00:17:37;;;;;;;8.93;3.30;;;;;;;20.01;60.44;100278.13;5070418;28;20071;-80
2023/09/27 00:20:05;;;;;;;10.32;3.65;;;;;;;20.01;60.38;100277.25;5070381;28;20464;-79
2023/09/27 00:22:30;;;;;;;10.10;3.40;;;;;;;19.96;60.17;100272.13;5070419;28;20282;-79
2023/09/27 00:24:56;;;;;;;7.53;3.13;;;;;;;19.93;60.48;100274.91;5070551;28;20403;-78
2023/09/27 00:27:22;;;;;;;12.23;3.72;;;;;;;19.91;60.59;100272.31;5052192;28;20028;-89
2023/09/27 00:29:48;;;;;;;11.27;3.63;;;;;;;19.87;60.26;100270.66;5050893;28;20048;-87
2023/09/27 00:32:13;;;;;;;9.43;2.97;;;;;;;19.87;60.48;100272.47;5056516;28;20044;-87
2023/09/27 00:34:38;;;;;;;8.70;3.40;;;;;;;19.83;60.15;100263.72;5070971;28;20032;-86
2023/09/27 00:37:04;;;;;;;11.67;3.93;;;;;;;19.81;60.40;100281.63;5070446;28;20470;-79
2023/09/27 00:39:29;;;;;;;10.37;3.33;;;;;;;19.73;60.78;100273.03;5069985;28;20092;-79
2023/09/27 00:41:55;;;;;;;7.13;3.30;;;;;;;19.69;60.76;100272.31;5069829;28;20036;-80
2023/09/27 00:44:20;;;;;;;9.75;3.20;;;;;;;19.67;60.64;100276.88;5078492;28;20020;-80
2023/09/27 00:46:46;;;;;;;13.73;3.43;;;;;;;19.65;60.84;100270.69;5090054;28;20031;-79
2023/09/27 00:49:14;;;;;;;8.23;3.20;;;;;;;19.62;60.71;100271.72;5093313;28;20030;-89
2023/09/27 00:51:40;;;;;;;11.63;3.10;;;;;;;19.58;60.48;100270.09;5091562;28;20028;-87
2023/09/27 00:54:06;;;;;;;7.32;3.35;;;;;;;19.57;60.46;100265.69;5090447;28;20126;-85
2023/09/27 00:56:32;;;;;;;8.35;2.90;;;;;;;19.53;61.02;100261.38;5089977;28;20051;-79
2023/09/27 00:58:58;;;;;;;7.97;3.38;;;;;;;19.51;60.44;100268.59;5089804;28;20468;-79
2023/09/27 01:01:26;;;;;;;11.67;3.53;;;;;;;19.48;60.59;100271.41;5069748;28;20028;-79
2023/09/27 01:03:52;;;;;;;8.02;3.05;;;;;;;19.40;60.89;100270.84;5069369;28;20028;-80
2023/09/27 01:06:18;;;;;;;11.32;3.17;;;;;;;19.38;60.92;100262.91;5069688;28;20055;-79
2023/09/27 01:08:45;;;;;;;8.47;2.90;;;;;;;19.38;60.83;100262.03;5107700;28;20034;-79
2023/09/27 01:11:10;;;;;;;8.65;2.67;;;;;;;19.34;61.03;100266.63;5110718;28;20087;-82
2023/09/27 01:13:36;;;;;;;6.27;3.10;;;;;;;19.30;60.80;100260.56;5090063;28;20120;-80
2023/09/27 01:16:01;;;;;;;6.57;2.70;;;;;;;19.26;60.65;100274.09;5089687;28;20788;-81
2023/09/27 01:18:27;;;;;;;9.73;3.77;;;;;;;19.21;60.85;100267.13;5089593;28;20602;-80
2023/09/27 01:20:53;;;;;;;8.85;3.17;;;;;;;19.13;61.24;100266.56;5089555;28;20480;-79
2023/09/27 01:23:18;;;;;;;8.00;2.67;;;;;;;19.09;60.96;100267.59;5089425;28;20048;-90
2023/09/27 01:25:44;;;;;;;10.80;2.90;;;;;;;19.04;61.63;100261.59;5085456;28;20495;-89
2023/09/27 01:28:11;;;;;;;10.10;2.95;;;;;;;18.98;61.25;100259.13;5069563;28;20082;-84
2023/09/27 01:30:39;;;;;;;9.77;2.88;;;;;;;18.95;61.28;100254.78;5075199;28;20032;-88
2023/09/27 01:33:08;;;;;;;8.38;2.90;;;;;;;18.89;61.38;100263.03;5054311;28;20057;-88
2023/09/27 01:35:34;;;;;;;9.18;2.70;;;;;;;18.81;61.76;100252.66;5034740;28;20036;-87
2023/09/27 01:38:00;;;;;;;7.17;2.83;;;;;;;18.73;62.18;100258.28;5049834;28;20118;-88
2023/09/27 01:40:32;;;;;;;9.13;2.72;;;;;;;18.67;62.32;100257.63;5049364;28;20112;-79
2023/09/27 01:42:59;;;;;;;10.95;2.60;;;;;;;18.64;62.24;100254.16;5048995;28;20091;-79
2023/09/27 01:45:25;;;;;;;7.93;2.63;;;;;;;18.69;61.95;100255.78;5047590;28;20569;-79
2023/09/27 01:47:51;;;;;;;7.18;2.80;;;;;;;18.69;62.01;100253.09;5069143;28;20497;-80
2023/09/27 01:50:19;;;;;;;9.77;2.77;;;;;;;18.65;61.92;100263.91;5069332;28;20028;-80
2023/09/27 01:52:47;;;;;;;7.30;2.78;;;;;;;18.64;62.17;100262.16;5068997;28;20286;-80
2023/09/27 01:55:13;;;;;;;8.52;2.45;;;;;;;18.67;61.90;100254.97;5051696;28;20369;-80
2023/09/27 01:57:39;;;;;;;8.33;2.60;;;;;;;18.68;61.98;100251.38;5069958;28;20054;-79
2023/09/27 02:00:11;;;;;;;8.45;2.80;;;;;;;18.67;61.88;100253.19;5063836;28;20501;-80
2023/09/27 02:02:43;;;;;;;6.43;2.50;;;;;;;18.69;61.42;100255.78;5052913;28;20041;-80
2023/09/27 02:05:09;;;;;;;9.75;2.30;;;;;;;18.69;61.57;100255.78;5053242;28;20456;-88
2023/09/27 02:07:39;;;;;;;8.27;2.67;;;;;;;18.68;61.69;100260.25;5073389;28;20062;-86
2023/09/27 02:10:09;;;;;;;5.65;2.40;;;;;;;18.64;61.55;100256.81;5077943;28;20024;-80
2023/09/27 02:12:36;;;;;;;7.65;2.60;;;;;;;18.62;61.49;100258.69;5081387;28;20028;-79
2023/09/27 02:15:03;;;;;;;11.10;2.80;;;;;;;18.57;61.80;100255.31;5072619;28;20116;-80
2023/09/27 02:17:28;;;;;;;11.57;2.67;;;;;;;18.55;61.42;100256.28;5072490;28;20208;-79
2023/09/27 02:19:54;;;;;;;11.47;2.80;;;;;;;18.48;62.05;100245.88;5072881;28;20191;-80
2023/09/27 02:22:20;;;;;;;7.72;2.40;;;;;;;18.42;61.98;100251.44;5072268;28;20404;-80
2023/09/27 02:24:47;;;;;;;10.53;2.67;;;;;;;18.38;62.05;100238.28;5072573;28;20036;-80
2023/09/27 02:27:14;;;;;;;8.80;2.53;;;;;;;18.38;62.01;100232.94;5059639;28;20033;-85
2023/09/27 02:29:42;;;;;;;6.50;2.42;;;;;;;18.39;61.83;100234.69;5052959;28;20029;-85
2023/09/27 02:32:08;;;;;;;8.43;2.67;;;;;;;18.39;61.61;100235.56;5052735;28;20436;-88
2023/09/27 02:34:34;;;;;;;8.15;2.60;;;;;;;18.37;61.96;100234.75;5052885;28;20500;-87
2023/09/27 02:37:00;;;;;;;10.27;2.67;;;;;;;18.35;61.96;100234.78;5052913;28;20116;-81
2023/09/27 02:39:25;;;;;;;8.45;2.42;;;;;;;18.31;62.07;100225.19;5052134;28;20377;-80
2023/09/27 02:41:51;;;;;;;7.28;2.58;;;;;;;18.28;62.05;100221.75;5052226;28;20044;-80
2023/09/27 02:44:16;;;;;;;7.40;2.57;;;;;;;18.24;62.07;100221.00;5059518;28;20016;-79
2023/09/27 02:46:43;;;;;;;8.33;2.73;;;;;;;18.20;62.11;100219.34;5073424;28;20059;-87
2023/09/27 02:49:09;;;;;;;9.95;2.67;;;;;;;18.15;62.50;100208.88;5072383;28;20026;-83
2023/09/27 02:51:35;;;;;;;7.73;3.00;;;;;;;18.14;62.45;100208.94;5073203;28;20452;-88
2023/09/27 02:54:01;;;;;;;6.05;2.63;;;;;;;18.13;62.31;100204.53;5072826;28;20024;-85
2023/09/27 02:56:26;;;;;;;6.23;2.57;;;;;;;18.11;62.32;100204.59;5072519;28;20029;-90
2023/09/27 02:58:52;;;;;;;8.60;2.80;;;;;;;18.07;62.46;100198.50;5072784;28;20020;-88
2023/09/27 03:01:17;;;;;;;10.73;2.83;;;;;;;18.01;62.42;100201.41;5058948;28;20021;-91
2023/09/27 03:03:42;;;;;;;6.43;2.23;;;;;;;17.98;62.49;100203.25;5053533;28;20503;-86
2023/09/27 03:06:14;;;;;;;9.60;2.80;;;;;;;17.95;62.56;100198.88;5055235;28;20028;-83
2023/09/27 03:08:40;;;;;;;6.75;2.60;;;;;;;17.95;62.43;100198.88;5087628;28;20115;-79
2023/09/27 03:11:06;;;;;;;7.38;2.53;;;;;;;17.92;62.43;100204.34;5092108;28;20036;-80
2023/09/27 03:13:36;;;;;;;6.60;2.70;;;;;;;17.91;62.91;100206.16;5072600;28;20033;-79
2023/09/27 03:16:02;;;;;;;6.32;2.50;;;;;;;17.87;62.78;100208.97;5071628;28;20500;-79
2023/09/27 03:18:27;;;;;;;6.70;2.78;;;;;;;17.85;62.71;100213.47;5074307;28;20075;-90
2023/09/27 03:20:52;;;;;;;9.67;2.83;;;;;;;17.81;62.69;100211.84;5073286;28;20052;-90
2023/09/27 03:23:18;;;;;;;9.63;2.60;;;;;;;17.75;62.91;100211.16;5062248;28;20040;-79
2023/09/27 03:25:43;;;;;;;8.50;2.60;;;;;;;17.74;62.95;100206.75;5051100;28;20041;-84
2023/09/27 03:28:09;;;;;;;8.77;2.50;;;;;;;17.71;62.80;100201.50;5051691;28;20079;-80
2023/09/27 03:30:34;;;;;;;6.90;2.70;;;;;;;17.69;63.05;100198.03;5051579;28;20291;-82
2023/09/27 03:33:01;;;;;;;6.77;2.50;;;;;;;17.66;63.07;100203.47;5052662;28;20044;-78
2023/09/27 03:35:27;;;;;;;6.10;2.60;;;;;;;17.63;63.21;100196.47;5052670;28;20032;-80
2023/09/27 03:37:56;;;;;;;7.17;2.67;;;;;;;17.61;63.17;100200.97;5051049;28;20267;-80
2023/09/27 03:40:22;;;;;;;9.15;2.70;;;;;;;17.57;63.28;100188.66;5033055;28;20059;-79
2023/09/27 03:42:47;;;;;;;8.38;2.70;;;;;;;17.49;63.71;100191.63;5050955;28;20067;-79
2023/09/27 03:45:16;;;;;;;6.10;2.43;;;;;;;17.40;63.71;100191.91;5066450;28;20078;-78
2023/09/27 03:47:44;;;;;;;7.95;2.42;;;;;;;17.31;64.23;100178.91;5071016;28;20159;-79
2023/09/27 03:50:10;;;;;;;6.77;2.50;;;;;;;17.21;64.10;100184.53;5070956;28;20024;-79
2023/09/27 03:52:38;;;;;;;5.22;2.35;;;;;;;17.15;64.58;100178.56;5070777;28;20442;-79
2023/09/27 03:55:03;;;;;;;7.40;2.30;;;;;;;17.13;64.58;100178.59;5071203;28;20028;-79
2023/09/27 03:57:29;;;;;;;6.87;2.63;;;;;;;17.10;64.47;100172.50;5070889;28;20407;-79
2023/09/27 03:59:54;;;;;;;7.07;2.63;;;;;;;17.06;64.84;100166.44;5063608;28;20021;-86
2023/09/27 04:02:20;;;;;;;5.93;1.93;;;;;;;17.05;64.88;100167.34;5051307;28;20033;-85
2023/09/27 04:04:45;;;;;;;7.60;2.20;;;;;;;17.04;64.91;100154.97;5051058;28;20025;-79
2023/09/27 04:07:10;;;;;;;7.13;2.50;;;;;;;17.01;65.01;100163.06;5063054;28;20078;-79
2023/09/27 04:09:36;;;;;;;8.63;2.50;;;;;;;17.00;64.92;100164.84;5091025;28;20024;-79
2023/09/27 04:12:01;;;;;;;7.68;2.20;;;;;;;16.99;64.79;100160.44;5083906;28;20443;-79
2023/09/27 04:14:26;;;;;;;6.93;2.23;;;;;;;16.97;64.83;100156.03;5070830;28;20036;-79
2023/09/27 04:16:59;;;;;;;7.23;2.50;;;;;;;16.91;65.09;100157.97;5070525;28;20442;-79
2023/09/27 04:19:24;;;;;;;7.32;2.50;;;;;;;16.85;65.02;100167.94;5065741;28;20577;-87
2023/09/27 04:21:50;;;;;;;6.77;2.60;;;;;;;16.82;65.06;100163.59;5054609;28;20056;-89
2023/09/27 04:24:16;;;;;;;10.00;2.60;;;;;;;16.78;65.18;100168.16;5051390;28;20025;-79
2023/09/27 04:26:41;;;;;;;7.43;2.50;;;;;;;16.78;65.01;100165.47;5050315;28;20534;-78
2023/09/27 04:29:07;;;;;;;6.05;2.47;;;;;;;16.78;64.98;100167.28;5050880;28;20032;-79
2023/09/27 04:31:34;;;;;;;7.93;2.37;;;;;;;16.77;64.95;100165.56;5050521;28;20545;-79
2023/09/27 04:34:00;;;;;;;9.48;2.70;;;;;;;16.73;65.25;100167.44;5049274;28;20049;-88
2023/09/27 04:36:25;;;;;;;6.83;2.63;;;;;;;16.72;65.02;100172.78;5051021;28;20539;-91
2023/09/27 04:38:50;;;;;;;9.00;2.40;;;;;;;16.71;64.93;100173.69;5052414;28;20295;-89
2023/09/27 04:41:17;;;;;;;7.83;2.90;;;;;;;16.70;64.92;100169.28;5053059;28;20020;-79
2023/09/27 04:43:44;;;;;;;9.63;2.67;;;;;;;16.67;65.12;100164.97;5067542;28;20076;-82
2023/09/27 04:46:17;;;;;;;7.78;2.60;;;;;;;16.66;65.01;100163.22;5051452;28;20040;-91
2023/09/27 04:48:43;;;;;;;9.98;2.60;;;;;;;16.66;64.90;100155.25;5050489;28;20052;-90
2023/09/27 04:51:09;;;;;;;6.53;2.40;;;;;;;16.65;64.98;100157.03;5050088;28;20370;-79
2023/09/27 04:53:37;;;;;;;8.57;2.43;;;;;;;16.67;64.99;100161.41;5031607;28;20166;-79
2023/09/27 04:56:07;;;;;;;7.00;2.17;;;;;;;16.67;64.95;100158.75;5050254;28;20029;-87
2023/09/27 04:58:33;;;;;;;7.75;2.25;;;;;;;16.67;64.94;100159.66;5050600;28;20022;-91
2023/09/27 05:00:59;;;;;;;8.10;2.37;;;;;;;16.65;64.96;100162.34;5066573;28;20027;-78
2023/09/27 05:03:24;;;;;;;8.85;2.40;;;;;;;16.68;64.81;100160.50;5069538;28;20032;-78
2023/09/27 05:05:50;;;;;;;7.17;2.37;;;;;;;16.63;65.06;100158.84;5069803;28;20032;-78
2023/09/27 05:08:15;;;;;;;8.87;2.77;;;;;;;16.61;65.13;100160.69;5084531;28;20464;-79
2023/09/27 05:10:40;;;;;;;7.13;2.63;;;;;;;16.61;65.06;100146.53;5090175;28;20258;-92
2023/09/27 05:13:06;;;;;;;8.03;2.50;;;;;;;16.60;65.03;100148.31;5074966;28;20424;-91
2023/09/27 05:15:32;;;;;;;7.27;2.30;;;;;;;16.59;64.89;100149.25;5064844;28;20061;-78
2023/09/27 05:17:57;;;;;;;6.57;1.92;;;;;;;16.59;64.78;100149.25;5049309;28;20025;-78
2023/09/27 05:20:23;;;;;;;6.60;2.10;;;;;;;16.58;64.83;100144.84;5049550;28;20036;-83
2023/09/27 05:22:48;;;;;;;8.27;2.13;;;;;;;16.58;64.93;100150.16;5050453;28;20054;-82
2023/09/27 05:25:14;;;;;;;9.77;2.72;;;;;;;16.53;65.03;100141.47;5051816;28;20506;-88
2023/09/27 05:27:40;;;;;;;6.07;2.60;;;;;;;16.48;65.34;100138.06;5050815;28;20087;-90
2023/09/27 05:30:07;;;;;;;8.52;2.20;;;;;;;16.43;65.25;100134.69;5054557;28;20040;-82
2023/09/27 05:32:33;;;;;;;6.18;2.28;;;;;;;16.37;65.45;100122.44;5065707;28;20098;-82
2023/09/27 05:34:58;;;;;;;5.87;2.20;;;;;;;16.36;65.28;100123.34;5060877;28;20226;-84
2023/09/27 05:37:24;;;;;;;7.13;2.30;;;;;;;16.35;65.22;100127.81;5062373;28;20061;-82
2023/09/27 05:39:49;;;;;;;7.20;2.00;;;;;;;16.38;65.20;100125.97;5095204;28;20085;-90
2023/09/27 05:42:17;;;;;;;7.50;2.13;;;;;;;16.39;65.14;100130.38;5090923;28;20285;-79
2023/09/27 05:44:43;;;;;;;8.02;2.45;;;;;;;16.38;65.00;100125.97;5078357;28;20070;-78
2023/09/27 05:47:08;;;;;;;6.83;2.10;;;;;;;16.35;64.89;100124.28;5069626;28;20048;-92
2023/09/27 05:49:34;;;;;;;6.17;2.10;;;;;;;16.31;64.79;100118.19;5065092;28;20028;-84
2023/09/27 05:51:59;;;;;;;7.33;2.40;;;;;;;16.28;65.02;100131.59;5085025;28;20035;-86
2023/09/27 05:54:25;;;;;;;7.45;2.28;;;;;;;16.28;65.04;100134.25;5075659;28;20476;-81
2023/09/27 05:56:52;;;;;;;7.83;1.93;;;;;;;16.28;64.85;100136.91;5068822;28;20039;-88
2023/09/27 05:59:18;;;;;;;6.68;2.28;;;;;;;16.27;64.81;100156.38;5080464;28;20033;-92
2023/09/27 06:01:44;;;;;;;6.83;2.20;;;;;;;16.25;64.73;100152.06;5070445;28;20036;-78
2023/09/27 06:04:10;;;;;;;6.15;2.17;;;;;;;16.23;64.81;100154.75;5069459;28;20025;-90
2023/09/27 06:06:36;;;;;;;9.48;2.22;;;;;;;16.19;64.99;100153.09;5070243;28;20041;-77
2023/09/27 06:09:05;;;;;;;7.17;2.30;;;;;;;16.13;65.34;100153.28;5092399;28;20024;-91
2023/09/27 06:11:32;;;;;;;7.63;2.40;;;;;;;16.07;65.55;100141.91;5084213;28;20028;-92
2023/09/27 06:13:58;;;;;;;5.72;2.50;;;;;;;16.05;65.39;100145.53;5051489;28;20029;-78
2023/09/27 06:16:24;;;;;;;6.70;2.50;;;;;;;16.03;65.38;100142.91;5054748;28;20454;-77
2023/09/27 06:18:50;;;;;;;5.22;2.10;;;;;;;16.05;65.50;100146.41;5060778;28;20105;-88
2023/09/27 06:21:15;;;;;;;7.43;2.45;;;;;;;16.10;65.44;100156.03;5060351;28;20052;-77
2023/09/27 06:23:41;;;;;;;5.90;2.33;;;;;;;16.32;64.88;100151.81;5055946;28;20572;-91
2023/09/27 06:26:07;;;;;;;6.68;2.20;;;;;;;16.62;64.13;100145.59;5054719;28;20032;-83
2023/09/27 06:28:33;;;;;;;7.70;2.20;;;;;;;16.93;63.21;100150.81;5051703;28;20086;-95
2023/09/27 06:30:59;;;;;;;5.85;2.10;;;;;;;17.08;62.83;100145.97;5052708;28;20540;-90
2023/09/27 06:33:24;;;;;;;7.18;2.22;;;;;;;16.99;63.14;100148.91;5051329;28;20174;-77
2023/09/27 06:35:49;;;;;;;6.83;1.83;;;;;;;16.81;63.54;100150.34;5068618;28;20070;-85
2023/09/27 06:38:19;;;;;;;9.10;2.27;;;;;;;16.57;64.68;100152.84;5050459;28;20028;-77
2023/09/27 06:40:44;;;;;;;9.93;2.30;;;;;;;16.43;64.80;100158.59;5068920;28;20412;-77
2023/09/27 06:43:10;;;;;;;10.73;2.40;;;;;;;16.34;65.06;100162.41;5065415;28;20047;-78
2023/09/27 06:45:36;;;;;;;7.93;2.40;;;;;;;16.32;65.81;100157.16;5054266;28;20029;-81
2023/09/27 06:48:03;;;;;;;6.75;2.35;;;;;;;16.41;65.59;100160.44;5052847;28;20441;-77
2023/09/27 06:50:29;;;;;;;5.55;2.10;;;;;;;16.58;65.21;100155.47;5034168;28;20082;-78
2023/09/27 06:52:56;;;;;;;7.95;2.10;;;;;;;16.85;64.45;100158.19;5052663;28;20024;-79
2023/09/27 06:55:22;;;;;;;9.00;2.30;;;;;;;17.09;63.85;100161.00;5053107;28;20031;-91
2023/09/27 06:57:50;;;;;;;8.25;2.15;;;;;;;17.36;63.05;100163.66;5051661;28;20028;-92
2023/09/27 07:00:18;;;;;;;8.35;2.40;;;;;;;17.52;62.87;100157.81;5044230;28;20068;-88
2023/09/27 07:02:48;;;;;;;10.00;2.40;;;;;;;17.59;62.67;100168.19;5072015;28;20029;-91
2023/09/27 07:05:16;;;;;;;11.00;2.30;;;;;;;17.77;62.38;100173.78;5060027;28;20104;-92
2023/09/27 07:07:42;;;;;;;7.97;2.43;;;;;;;17.88;62.42;100165.41;5069393;28;20036;-92
2023/09/27 07:10:09;;;;;;;6.57;2.20;;;;;;;17.92;62.12;100164.38;5052473;28;20033;-79
2023/09/27 07:12:35;;;;;;;7.50;2.20;;;;;;;18.01;62.10;100166.75;5063252;28;20551;-78
2023/09/27 07:15:04;;;;;;;5.55;2.00;;;;;;;18.20;61.60;100160.72;5071801;28;20106;-78
2023/09/27 07:17:30;;;;;;;6.20;2.03;;;;;;;18.42;61.30;100159.91;5071982;28;20025;-78
2023/09/27 07:19:56;;;;;;;6.95;2.20;;;;;;;18.65;60.62;100151.03;5071619;28;20522;-78
2023/09/27 07:22:23;;;;;;;5.70;2.05;;;;;;;18.82;60.10;100149.50;5071478;28;20400;-78
2023/09/27 07:24:48;;;;;;;7.30;1.90;;;;;;;18.97;59.91;100145.31;5071475;28;20027;-78
2023/09/27 07:27:14;;;;;;;5.80;2.17;;;;;;;19.09;59.73;100139.50;5054294;28;20029;-78
2023/09/27 07:29:39;;;;;;;6.05;2.10;;;;;;;19.16;59.95;100140.97;5051742;28;20094;-85
2023/09/27 07:32:05;;;;;;;7.73;2.10;;;;;;;19.29;59.53;100132.47;5063742;28;20052;-90
2023/09/27 07:34:30;;;;;;;11.57;2.37;;;;;;;19.46;59.69;100124.59;5069349;28;20074;-89
2023/09/27 07:36:56;;;;;;;7.03;2.27;;;;;;;19.65;59.23;100131.78;5043370;28;20013;-86
2023/09/27 07:39:22;;;;;;;8.97;2.40;;;;;;;19.77;58.97;100131.25;5055930;28;20576;-80
2023/09/27 07:41:49;;;;;;;9.88;2.60;;;;;;;19.90;58.77;100126.22;5051502;28;20366;-86
2023/09/27 07:44:15;;;;;;;8.48;2.40;;;;;;;19.98;58.75;100122.34;5058383;28;20078;-85
2023/09/27 07:46:41;;;;;;;6.53;2.30;;;;;;;20.12;58.29;100124.41;5071808;28;20028;-90
2023/09/27 07:49:06;;;;;;;9.07;2.30;;;;;;;20.30;57.98;100123.53;5074934;28;20107;-89
2023/09/27 07:51:32;;;;;;;6.55;2.50;;;;;;;20.49;57.72;100123.53;5071259;28;20108;-77
2023/09/27 07:53:57;;;;;;;9.90;2.37;;;;;;;20.65;57.78;100121.00;5070102;28;20377;-78
2023/09/27 07:56:25;;;;;;;6.40;2.07;;;;;;;20.83;57.20;100126.41;5053126;28;20549;-77
2023/09/27 07:58:52;;;;;;;13.00;2.30;;;;;;;20.99;56.83;100113.16;5070828;28;20392;-78
2023/09/27 08:01:22;;;;;;;8.38;2.55;;;;;;;21.06;56.74;100116.38;5033771;28;20283;-77
2023/09/27 08:03:51;;;;;;;8.40;2.30;;;;;;;21.19;56.85;100113.94;5054230;28;20029;-78
2023/09/27 08:06:18;;;;;;;11.88;2.53;;;;;;;21.30;56.44;100113.38;5050932;28;20029;-77
2023/09/27 08:08:43;;;;;;;12.75;3.08;;;;;;;21.42;56.25;100118.13;5088030;28;20392;-77
2023/09/27 08:11:11;;;;;;;9.68;2.70;;;;;;;21.55;56.25;100117.47;5091144;28;20020;-84
2023/09/27 08:13:37;;;;;;;7.73;2.53;;;;;;;21.63;55.92;100115.28;5070679;28;20025;-77
2023/09/27 08:16:06;;;;;;;7.20;2.60;;;;;;;21.72;56.26;100114.81;5070619;28;20107;-78
2023/09/27 08:18:31;;;;;;;9.32;2.80;;;;;;;21.78;55.82;100109.09;5070841;28;20060;-77
2023/09/27 08:20:56;;;;;;;10.90;2.90;;;;;;;21.92;55.47;100107.50;5070366;28;20118;-78
2023/09/27 08:23:22;;;;;;;6.50;2.57;;;;;;;22.02;55.76;100106.06;5070325;28;20502;-77
2023/09/27 08:25:48;;;;;;;7.57;2.70;;;;;;;22.20;55.25;100103.31;5065305;28;20489;-78
2023/09/27 08:28:16;;;;;;;7.03;2.30;;;;;;;22.31;55.31;100108.97;5069225;28;20016;-78
2023/09/27 08:30:41;;;;;;;7.00;2.60;;;;;;;22.46;54.94;100099.22;5070279;28;20116;-78
2023/09/27 08:33:07;;;;;;;11.70;2.57;;;;;;;22.60;54.76;100094.88;5070361;28;20474;-78
2023/09/27 08:35:33;;;;;;;7.70;2.55;;;;;;;22.78;54.69;100100.97;5052254;28;20496;-78
2023/09/27 08:38:01;;;;;;;8.77;2.60;;;;;;;22.91;54.61;100085.91;5070214;28;20060;-79
2023/09/27 08:40:26;;;;;;;9.88;2.80;;;;;;;23.13;54.36;100095.38;5070426;28;20472;-78
2023/09/27 08:42:57;;;;;;;9.70;2.80;;;;;;;23.29;54.13;100094.50;5070290;28;20045;-80
2023/09/27 08:45:23;;;;;;;13.82;3.20;;;;;;;23.43;54.08;100093.66;5053715;28;20063;-78
2023/09/27 08:47:49;;;;;;;12.02;2.75;;;;;;;23.64;54.13;100096.84;5054962;28;20056;-78
2023/09/27 08:50:17;;;;;;;13.53;2.87;;;;;;;23.79;53.95;100101.28;5067211;28;20514;-78
2023/09/27 08:52:49;;;;;;;9.82;2.65;;;;;;;23.94;53.72;100101.25;5069732;28;20078;-78
2023/09/27 08:55:17;;;;;;;8.45;2.67;;;;;;;24.16;53.34;100103.50;5069867;28;20066;-78
2023/09/27 08:57:48;;;;;;;10.55;2.80;;;;;;;24.32;52.01;100091.75;5069883;28;20021;-80
2023/09/27 09:00:23;;;;;;;7.47;2.70;;;;;;;24.49;52.32;100098.75;5056118;28;20029;-79
2023/09/27 09:02:56;;;;;;;9.80;3.20;;;;;;;24.55;51.95;100103.72;5055211;28;20643;-78
2023/09/27 09:05:22;;;;;;;9.45;2.65;;;;;;;24.65;51.60;100094.06;5070250;28;20032;-77
2023/09/27 09:07:48;;;;;;;8.98;2.65;;;;;;;24.74;51.01;100094.44;5080499;28;20028;-79
2023/09/27 09:10:15;;;;;;;8.32;2.80;;;;;;;24.83;51.03;100090.25;5089941;28;20095;-78
2023/09/27 09:12:45;;;;;;;10.32;2.58;;;;;;;25.01;50.77;100088.19;5076901;28;20028;-79
2023/09/27 09:15:26;;;;;;;9.13;2.70;;;;;;;25.09;50.14;100080.44;5069572;28;20568;-79
2023/09/27 09:17:53;;;;;;;9.10;2.55;;;;;;;25.13;50.26;100076.56;5069429;28;20063;-79
2023/09/27 09:20:23;;;;;;;10.75;2.92;;;;;;;25.27;49.80;100075.59;5069253;28;20032;-78
2023/09/27 09:22:53;;;;;;;10.35;2.90;;;;;;;25.45;49.56;100080.69;5069443;28;20032;-79
2023/09/27 09:25:21;;;;;;;10.85;3.00;;;;;;;25.59;49.47;100066.28;5067238;28;20079;-79
2023/09/27 09:28:13;;;;;;;6.43;2.43;;;;;;;25.71;48.88;100059.16;5052551;28;20483;-86
2023/09/27 09:30:40;;;;;;;12.38;2.35;;;;;;;26.00;48.38;100051.69;5049374;28;20028;-83
2023/09/27 09:33:17;;;;;;;6.80;2.03;;;;;;;26.06;47.37;100053.06;5058353;28;20472;-82
2023/09/27 09:35:42;;;;;;;9.38;2.22;;;;;;;26.19;47.33;100042.28;5049379;28;20029;-81
2023/09/27 09:38:08;;;;;;;7.07;2.40;;;;;;;26.33;47.25;100042.09;5049458;28;20683;-82
2023/09/27 09:40:34;;;;;;;7.97;2.30;;;;;;;26.51;46.54;100036.31;5049637;28;20086;-81
2023/09/27 09:43:00;;;;;;;5.15;1.98;;;;;;;26.64;46.48;100034.41;5050229;28;20029;-80
2023/09/27 09:45:26;;;;;;;8.88;2.50;;;;;;;26.80;45.98;100041.34;5066789;28;20029;-80
2023/09/27 09:47:52;;;;;;;8.70;3.00;;;;;;;26.93;44.58;100036.78;5069191;28;20481;-84
2023/09/27 09:50:18;;;;;;;7.03;2.47;;;;;;;27.02;44.68;100035.22;5069386;28;20032;-81
2023/09/27 09:52:56;;;;;;;7.22;2.10;;;;;;;27.12;44.60;100029.91;5069219;28;20056;-81
2023/09/27 09:55:23;;;;;;;4.82;2.22;;;;;;;27.34;43.74;100029.13;5069686;28;20040;-83
2023/09/27 09:57:58;;;;;;;5.13;2.05;;;;;;;27.48;43.73;100030.72;5055691;28;20100;-83
2023/09/27 10:00:27;;;;;;;7.28;2.13;;;;;;;27.58;42.95;100024.59;5060959;28;20037;-81
2023/09/27 10:03:04;;;;;;;7.80;2.10;;;;;;;27.62;41.73;100023.41;5050440;28;20041;-80
2023/09/27 10:05:50;;;;;;;5.15;2.10;;;;;;;27.61;40.70;100032.47;5049445;28;20021;-78
2023/09/27 10:08:20;;;;;;;7.63;2.20;;;;;;;27.87;40.64;100034.97;5065771;28;20028;-80
2023/09/27 10:10:46;;;;;;;6.53;2.00;;;;;;;27.98;39.57;100031.38;5059497;28;20036;-81
2023/09/27 10:13:13;;;;;;;7.13;1.42;;;;;;;28.10;39.06;100030.34;5058125;28;20039;-81
2023/09/27 10:15:40;;;;;;;5.23;1.70;;;;;;;28.20;38.17;100025.94;5058727;28;20504;-80
2023/09/27 10:18:21;;;;;;;5.40;1.73;;;;;;;28.20;38.23;100020.50;5057624;28;20025;-81
2023/09/27 10:21:05;;;;;;;6.03;2.15;;;;;;;28.26;37.54;100018.31;5063496;28;20028;-81
2023/09/27 10:23:46;;;;;;;7.45;1.90;;;;;;;28.33;35.67;100025.78;5043440;28;20033;-80
2023/09/27 10:26:31;;;;;;;5.95;1.80;;;;;;;28.55;35.58;100018.56;5061185;28;20028;-81
2023/09/27 10:29:16;;;;;;;5.80;1.80;;;;;;;28.83;35.27;100015.41;5062858;28;20495;-80
2023/09/27 10:32:01;;;;;;;5.30;1.90;;;;;;;28.91;35.75;100018.31;5069515;28;20048;-81
2023/09/27 10:34:30;;;;;;;6.32;1.88;;;;;;;29.18;35.14;100014.22;5078419;28;20109;-80
2023/09/27 10:37:00;;;;;;;6.18;1.90;;;;;;;29.27;34.93;100013.41;5092753;28;20020;-85
2023/09/27 10:39:26;;;;;;;7.20;1.90;;;;;;;29.42;34.56;100005.81;5092677;28;20062;-81
2023/09/27 10:41:53;;;;;;;8.30;1.63;;;;;;;29.53;34.03;99995.84;5092507;28;20035;-81
2023/09/27 10:44:31;;;;;;;5.35;1.70;;;;;;;29.52;34.53;99984.16;5084722;28;20021;-80
2023/09/27 10:47:03;;;;;;;5.00;1.60;;;;;;;29.59;33.73;99985.31;5072068;28;20381;-80
2023/09/27 10:49:37;;;;;;;4.63;1.60;;;;;;;29.77;33.80;99977.38;5072412;28;20483;-80
2023/09/27 10:52:03;;;;;;;6.07;1.83;;;;;;;29.84;32.97;99971.44;5074872;28;20564;-79
2023/09/27 10:54:28;;;;;;;5.47;1.73;;;;;;;29.91;33.48;99967.16;5073080;28;20526;-79
2023/09/27 10:56:56;;;;;;;6.18;1.90;;;;;;;29.93;32.74;99967.88;5072021;28;20024;-81
2023/09/27 10:59:28;;;;;;;4.65;1.60;;;;;;;30.08;32.57;99958.38;5074875;28;20028;-79
2023/09/27 11:01:59;;;;;;;6.67;1.80;;;;;;;30.19;32.10;99961.94;5092041;28;20036;-80
2023/09/27 11:04:25;;;;;;;4.82;1.70;;;;;;;30.36;32.59;99971.22;5092129;28;20499;-80
2023/09/27 11:06:51;;;;;;;7.47;2.00;;;;;;;30.46;32.22;99972.09;5095220;28;20394;-79
2023/09/27 11:09:19;;;;;;;6.03;1.75;;;;;;;30.44;31.26;99967.81;5096927;28;20491;-79
2023/09/27 11:11:47;;;;;;;8.57;2.10;;;;;;;30.56;31.16;99961.25;5076124;28;20481;-82
2023/09/27 11:14:32;;;;;;;5.17;1.97;;;;;;;30.65;30.86;99962.28;5088669;28;20028;-79
2023/09/27 11:17:18;;;;;;;4.63;1.85;;;;;;;30.73;30.83;99956.09;5075912;28;20537;-78
2023/09/27 11:19:43;;;;;;;5.30;1.75;;;;;;;30.84;30.20;99953.22;5080006;28;20103;-79
2023/09/27 11:22:09;;;;;;;5.07;1.80;;;;;;;30.99;29.44;99952.75;5080042;28;20163;-79
2023/09/27 11:24:39;;;;;;;5.18;1.85;;;;;;;31.03;29.82;99948.75;5087880;28;20107;-79